• Join FlightAware (Why Join?)
  • Login
  • US Flag 
08:02AM EDT


 

Airport Tracker/Info


-or-


 

Live Flight TrackerFlight Track Log ✈ SWA3853 ✈ 01-Jul-2013 ✈ KMDW - KSTL

Flight Track Log - Related Links

Times and Time Zones

All times are in EDT time to prevent confusion due to time zone crossing. See the SWA3853 flight status page for this flight to view local times or setup timezone preferences in your user account.

Time Position Orientation Groundspeed Altitude Reporting Facility
EDT Latitude Longitude Course Direction KTS MPH feet Rate Location/Type
08:16AM 41.8000 -87.7333 129° Southeast 221 254 3,600  Level Chicago TRACON
08:17AM 41.7500 -87.6500 129° Southeast 271 312 5,900 1,140 Climbing Chicago TRACON
08:18AM 41.6808 -87.6664 190° South 286 329 6,000 1,020 Climbing Chicago Center
08:19AM 41.6217 -87.7469 226° Southwest 304 350 8,100 2,760 Climbing Chicago Center
08:20AM 41.5594 -87.8281 224° Southwest 310 357 11,700 3,420 Climbing Chicago Center
08:21AM 41.4781 -87.9364 225° Southwest 344 396 15,200 3,180 Climbing Chicago Center
08:22AM 41.4067 -88.0314 225° Southwest 356 410 18,300 3,000 Climbing Chicago Center
08:23AM 41.2975 -88.0669 194° South 378 435 21,400 2,520 Climbing Chicago Center
08:24AM 41.1911 -88.0903 189° South 389 448 23,600 2,220 Climbing Chicago Center
08:25AM 41.0797 -88.1050 186° South 403 464 26,000 1,140 Climbing Chicago Center
08:26AM 40.9589 -88.1186 185° South 434 499 26,000  Level Chicago Center
08:27AM 40.8347 -88.1333 185° South 449 517 26,000  Level Chicago Center
08:28AM 40.7122 -88.1475 185° South 445 512 26,000  Level Chicago Center
08:29AM 40.5667 -88.1689 186° South 443 510 26,000  Level Chicago Center
08:31AM 40.4517 -88.2258 201° Southwest 442 509 26,000  Level Chicago Center
08:32AM 40.3369 -88.2800 200° South 440 506 26,000  Level Chicago Center
08:33AM 40.2222 -88.3339 200° South 440 506 26,000  Level Chicago Center
08:34AM 40.1039 -88.3892 200° South 440 506 26,000  Level Chicago Center
08:35AM 39.9883 -88.4431 200° South 438 504 26,000 -480 Level Chicago Center
08:36AM 39.8750 -88.4958 200° South 432 497 25,100 -900 Descending Chicago Center
08:37AM 39.7639 -88.5469 199° South 424 488 24,200 -600 Descending Chicago Center
08:38AM 39.6742 -88.5875 199° South 429 494 24,000 -120 Descending Kansas City Center
08:39AM 39.5608 -88.6578 206° Southwest 385 443 24,000  Level Kansas City Center
08:40AM 39.4808 -88.7464 221° Southwest 375 432 24,000  Level Kansas City Center
08:41AM 39.4014 -88.8308 219° Southwest 399 459 24,000  Level Kansas City Center
08:42AM 39.3131 -88.9289 221° Southwest 415 478 24,000 -180 Level Kansas City Center
08:43AM 39.2028 -89.0442 219° Southwest 423 487 23,700 -1,320 Descending Kansas City Center
08:44AM 39.1131 -89.1403 220° Southwest 416 479 21,300 -2,400 Descending Kansas City Center
08:45AM 39.0694 -89.2672 246° West 397 457 18,800 -2,640 Descending Kansas City Center
08:46AM 39.0383 -89.4086 254° West 383 441 16,000 -2,580 Descending Kansas City Center
08:47AM 39.0086 -89.5353 253° West 374 430 13,600 -2,580 Descending Kansas City Center
08:48AM 38.9517 -89.6503 238° Southwest 368 423 10,800 -1,860 Descending Kansas City Center
08:49AM 38.8911 -89.7242 224° Southwest 360 414 9,900 -960 Descending Kansas City Center
08:50AM 38.8319 -89.8014 225° Southwest 310 357 8,900 -1,020 Descending Kansas City Center
08:51AM 38.7719 -89.8767 224° Southwest 301 346 7,900 -1,440 Descending Kansas City Center
08:52AM 38.6969 -89.9706 224° Southwest 310 357 6,000 -1,740 Descending Kansas City Center
08:53AM 38.6700 -90.0711 251° West 304 350 4,400 -1,200 Descending Kansas City Center
08:54AM 38.6592 -90.1708 262° West 295 339 3,600 -960 Descending Kansas City Center
08:55AM 38.6864 -90.2347 299° West 232 267 2,500 -960 Descending Kansas City Center
08:56AM 38.7119 -90.2861 303° West 196 226 1,700 -840 Descending Kansas City Center
08:57AM 38.7308 -90.3231 303° West 150 173 900 -540 Descending Kansas City Center
08:58AM 38.7547 -90.3678 304° West 142 163 600 -300 Descending Kansas City Center
09:00AM 38.7487 -90.3700 169° South  Level Estimated